Main page
METAR-TAF:

METAR-TAF

Airports :

Tehran Imam Khomeini International Airport

Tehran, Iran

latitude: 35-24-58N, longitude: 51-09-08E, elevation: 1007 m

Current weather observation

The report was made 32 minutes ago, at 06:00 UTC
Wind 6 kt from the West
Temperature 4°C
Humidity 52%
Pressure 1020 hPa
Visibility 10 km or more
no clouds below 1500 m and no cumulonimbus

METAR: OIIE 230600Z 27006KT CAVOK 04/M05 Q1020

Time: 10:02 (06:32 UTC)

Forecast

The report was made 1 hour and 2 minutes ago, at 05:30 UTC
Forecast valid from 23 at 06 UTC to 24 at 12 UTC
Wind 8 kt from the West
Visibility: 8000 m

TAF: OIIE 230530Z 2306/2412 28008KT 8000 NSC

Weather observations and forecasts of more than 4000 airports (METAR and TAF reports).

The available stations are represented by yellow and red dots on the map.

Hover mouse over dot to see the name of the station.

Then click to see weather observations and forecasts.

To change the map : click on the green buttons with a black cross to zoom in, on the green button with a dash to zoom out, or on the green arrows for adjacent maps.


METAR-TAF: